Datum - Zeit
Döttingen
TemperaturTaupunktFeuchteSolar Wind aus
Richtung
Windböenaus
Richtung
Luftdruck
(QFF)
RegenRegen
Stärke
22.05.2018 - 00.00Uhr13.9 °C11.9 °C88 %0.0 W/m²1.2 km/hOst-SO4.0 km/hOst-SO1011.2 hPa0.0 mm0.0 mm/h
22.05.2018 - 00.05Uhr13.8 °C11.8 °C88 %0.0 W/m²3.6 km/hOst-SO8.3 km/hOst-SO1011.2 hPa0.0 mm0.0 mm/h
22.05.2018 - 00.10Uhr13.8 °C11.8 °C88 %0.0 W/m²0.8 km/hOst-SO1.8 km/hOst-SO1011.2 hPa0.0 mm0.0 mm/h
22.05.2018 - 00.15Uhr13.7 °C11.7 °C88 %0.0 W/m²0.2 km/hOst-SO1.8 km/hOst-SO1011.2 hPa0.0 mm0.0 mm/h
22.05.2018 - 00.20Uhr13.3 °C11.4 °C88 %0.0 W/m²0.0 km/hOst-SO0.0 km/hNorden1011.3 hPa0.0 mm0.0 mm/h
22.05.2018 - 00.25Uhr13.4 °C11.5 °C88 %0.0 W/m²0.0 km/hOst-SO0.0 km/hNorden1011.3 hPa0.0 mm0.0 mm/h
22.05.2018 - 00.30Uhr13.4 °C11.5 °C88 %0.0 W/m²0.3 km/hOst-SO1.8 km/hOst-SO1011.3 hPa0.0 mm0.0 mm/h
22.05.2018 - 00.35Uhr13.4 °C11.5 °C88 %0.0 W/m²0.7 km/hOst-SO1.8 km/hOst-SO1011.2 hPa0.0 mm0.0 mm/h
22.05.2018 - 00.40Uhr13.4 °C11.5 °C88 %0.0 W/m²0.6 km/hOst-SO1.8 km/hOst-SO1011.2 hPa0.0 mm0.0 mm/h
22.05.2018 - 00.45Uhr13.3 °C11.4 °C88 %0.0 W/m²2.4 km/hOst-SO4.0 km/hOst-SO1011.1 hPa0.0 mm0.0 mm/h
22.05.2018 - 00.50Uhr13.3 °C11.4 °C88 %0.0 W/m²1.6 km/hOst-SO4.0 km/hOst-SO1011.0 hPa0.0 mm0.0 mm/h
22.05.2018 - 00.55Uhr13.2 °C11.3 °C88 %0.0 W/m²1.0 km/hOst-SO4.0 km/hOst-SO1011.1 hPa0.0 mm0.0 mm/h
22.05.2018 - 01.00Uhr13.2 °C11.3 °C88 %0.0 W/m²0.9 km/hOst-SO1.8 km/hOst-SO1011.1 hPa0.0 mm0.0 mm/h
22.05.2018 - 01.05Uhr13.2 °C11.3 °C88 %0.0 W/m²0.5 km/hOst-SO1.8 km/hOst-SO1011.0 hPa0.0 mm0.0 mm/h
22.05.2018 - 01.10Uhr13.0 °C11.1 °C88 %0.0 W/m²1.2 km/hOst-SO4.0 km/hOst-SO1011.0 hPa0.0 mm0.0 mm/h
22.05.2018 - 01.15Uhr12.8 °C10.9 °C88 %0.0 W/m²1.5 km/hOst-SO4.0 km/hOst-SO1010.9 hPa0.0 mm0.0 mm/h
22.05.2018 - 01.20Uhr12.7 °C10.8 °C88 %0.0 W/m²1.2 km/hOst-SO4.0 km/hOst-SO1010.9 hPa0.2 mm0.0 mm/h
22.05.2018 - 01.25Uhr12.8 °C10.9 °C88 %0.0 W/m²0.4 km/hOst-SO1.8 km/hOst-SO1011.0 hPa0.0 mm0.0 mm/h
22.05.2018 - 01.30Uhr12.9 °C11.0 °C88 %0.0 W/m²0.8 km/hOst-SO1.8 km/hOst-SO1011.0 hPa0.0 mm0.0 mm/h
22.05.2018 - 01.35Uhr12.9 °C11.0 °C88 %0.0 W/m²0.0 km/hOst-SO0.0 km/hNorden1010.9 hPa0.0 mm0.0 mm/h
22.05.2018 - 01.40Uhr12.9 °C11.0 °C88 %0.0 W/m²0.6 km/hOst-SO1.8 km/hOst-SO1010.9 hPa0.0 mm0.0 mm/h
22.05.2018 - 01.45Uhr12.8 °C10.9 °C88 %0.0 W/m²0.6 km/hOst-SO1.8 km/hOst-SO1010.8 hPa0.0 mm0.0 mm/h
22.05.2018 - 01.50Uhr12.7 °C10.8 °C88 %0.0 W/m²0.3 km/hOst-SO1.8 km/hOst-SO1010.8 hPa0.0 mm0.0 mm/h
22.05.2018 - 01.55Uhr12.6 °C10.7 °C88 %0.0 W/m²0.0 km/hOst-SO0.0 km/hNorden1010.8 hPa0.0 mm0.0 mm/h
22.05.2018 - 02.00Uhr12.5 °C10.6 °C88 %0.0 W/m²0.0 km/hOst-SO0.0 km/hNorden1010.8 hPa0.0 mm0.0 mm/h
22.05.2018 - 02.05Uhr12.6 °C10.7 °C88 %0.0 W/m²0.0 km/hOst-SO0.0 km/hNorden1010.8 hPa0.0 mm0.0 mm/h
22.05.2018 - 02.10Uhr12.5 °C10.6 °C88 %0.0 W/m²0.2 km/hOst-SO1.8 km/hOst-SO1010.8 hPa0.0 mm0.0 mm/h
22.05.2018 - 02.15Uhr12.4 °C10.5 °C88 %0.0 W/m²1.8 km/hOst-SO4.0 km/hOst-SO1010.8 hPa0.0 mm0.0 mm/h
22.05.2018 - 02.20Uhr12.5 °C10.6 °C88 %0.0 W/m²0.8 km/hOst-SO1.8 km/hOst-SO1010.8 hPa0.0 mm0.0 mm/h
22.05.2018 - 02.25Uhr12.6 °C10.7 °C88 %0.0 W/m²0.0 km/hOst-SO0.0 km/hNorden1010.8 hPa0.0 mm0.0 mm/h
22.05.2018 - 02.30Uhr12.5 °C10.6 °C88 %0.0 W/m²0.5 km/hOst-SO1.8 km/hOst-SO1010.8 hPa0.0 mm0.0 mm/h
22.05.2018 - 02.35Uhr12.5 °C10.6 °C88 %0.0 W/m²0.7 km/hOst-SO1.8 km/hOst-SO1010.7 hPa0.0 mm0.0 mm/h
22.05.2018 - 02.40Uhr12.5 °C10.6 °C88 %0.0 W/m²1.0 km/hOst-SO4.0 km/hOst-SO1010.7 hPa0.0 mm0.0 mm/h
22.05.2018 - 02.45Uhr12.4 °C10.6 °C88 %0.0 W/m²0.7 km/hOst-SO1.8 km/hOst-SO1010.6 hPa0.0 mm0.0 mm/h
22.05.2018 - 02.50Uhr12.4 °C10.5 °C88 %0.0 W/m²0.9 km/hOst-SO4.0 km/hOst-SO1010.6 hPa0.0 mm0.0 mm/h
22.05.2018 - 02.55Uhr12.2 °C10.3 °C88 %0.0 W/m²0.0 km/hOst-SO0.0 km/hNorden1010.6 hPa0.0 mm0.0 mm/h
22.05.2018 - 03.00Uhr12.0 °C10.1 °C88 %0.0 W/m²0.0 km/hOst-SO0.0 km/hNorden1010.6 hPa0.0 mm0.0 mm/h
22.05.2018 - 03.05Uhr12.1 °C10.2 °C88 %0.0 W/m²0.7 km/hOst-SO1.8 km/hOst-SO1010.6 hPa0.0 mm0.0 mm/h
22.05.2018 - 03.10Uhr12.2 °C10.3 °C88 %0.0 W/m²0.9 km/hOst-SO1.8 km/hOst-SO1010.7 hPa0.0 mm0.0 mm/h
22.05.2018 - 03.15Uhr12.1 °C10.2 °C88 %0.0 W/m²0.5 km/hOst-SO1.8 km/hOst-SO1010.7 hPa0.0 mm0.0 mm/h
22.05.2018 - 03.20Uhr11.9 °C10.0 °C88 %0.0 W/m²0.8 km/hOst-SO1.8 km/hOst-SO1010.7 hPa0.0 mm0.0 mm/h
22.05.2018 - 03.25Uhr11.9 °C10.0 °C88 %0.0 W/m²1.3 km/hOst-SO4.0 km/hOst-SO1010.7 hPa0.0 mm0.0 mm/h
22.05.2018 - 03.30Uhr12.0 °C10.1 °C88 %0.0 W/m²0.7 km/hOst-SO1.8 km/hOst-SO1010.7 hPa0.0 mm0.0 mm/h
22.05.2018 - 03.35Uhr12.0 °C10.1 °C88 %0.0 W/m²0.0 km/hOst-SO0.0 km/hNorden1010.7 hPa0.0 mm0.0 mm/h
22.05.2018 - 03.40Uhr11.7 °C9.9 °C88 %0.0 W/m²0.2 km/hOst-SO1.8 km/hOst-SO1010.7 hPa0.0 mm0.0 mm/h
22.05.2018 - 03.45Uhr11.8 °C10.0 °C89 %0.0 W/m²0.5 km/hOst-SO1.8 km/hOst-SO1010.7 hPa0.0 mm0.0 mm/h
22.05.2018 - 03.50Uhr11.8 °C10.0 °C89 %0.0 W/m²0.7 km/hOst-SO1.8 km/hOst-SO1010.7 hPa0.0 mm0.0 mm/h
22.05.2018 - 03.55Uhr11.7 °C9.9 °C88 %0.0 W/m²0.6 km/hOst-SO1.8 km/hOst-SO1010.7 hPa0.0 mm0.0 mm/h
22.05.2018 - 04.00Uhr11.9 °C10.1 °C89 %0.0 W/m²0.3 km/hOst-SO1.8 km/hOst-SO1010.7 hPa0.0 mm0.0 mm/h
22.05.2018 - 04.05Uhr12.1 °C10.3 °C89 %0.0 W/m²0.2 km/hOst-SO1.8 km/hOst-SO1010.6 hPa0.0 mm0.0 mm/h
22.05.2018 - 04.10Uhr12.2 °C10.3 °C89 %0.0 W/m²0.5 km/hOst-SO1.8 km/hOst-SO1010.6 hPa0.0 mm0.0 mm/h
22.05.2018 - 04.15Uhr12.2 °C10.4 °C89 %0.0 W/m²0.3 km/hOst-SO1.8 km/hOst-SO1010.7 hPa0.0 mm0.0 mm/h
22.05.2018 - 04.20Uhr12.0 °C10.2 °C89 %0.0 W/m²0.6 km/hOst-SO1.8 km/hOst-SO1010.7 hPa0.0 mm0.0 mm/h
22.05.2018 - 04.25Uhr11.9 °C10.1 °C89 %0.0 W/m²0.0 km/hOst-SO0.0 km/hNorden1010.7 hPa0.0 mm0.0 mm/h
22.05.2018 - 04.30Uhr12.0 °C10.2 °C89 %0.0 W/m²0.0 km/hOst-SO0.0 km/hNorden1010.7 hPa0.0 mm0.0 mm/h
22.05.2018 - 04.35Uhr12.1 °C10.3 °C89 %0.0 W/m²0.0 km/hOst-SO0.0 km/hNorden1010.7 hPa0.0 mm0.0 mm/h
22.05.2018 - 04.40Uhr12.1 °C10.3 °C89 %0.0 W/m²0.0 km/hOst-SO0.0 km/hNorden1010.7 hPa0.0 mm0.0 mm/h
22.05.2018 - 04.45Uhr12.1 °C10.3 °C89 %0.0 W/m²0.0 km/hOst-SO0.0 km/hNorden1010.7 hPa0.0 mm0.0 mm/h
22.05.2018 - 04.50Uhr12.2 °C10.4 °C89 %0.0 W/m²0.0 km/hOst-SO0.0 km/hNorden1010.7 hPa0.0 mm0.0 mm/h
22.05.2018 - 04.55Uhr12.1 °C10.3 °C89 %0.0 W/m²0.0 km/hOst-SO0.0 km/hNorden1010.7 hPa0.0 mm0.0 mm/h
22.05.2018 - 05.00Uhr12.2 °C10.4 °C89 %0.0 W/m²0.3 km/hOst-SO1.8 km/hOst-SO1010.7 hPa0.0 mm0.0 mm/h
22.05.2018 - 05.05Uhr12.2 °C10.4 °C89 %0.0 W/m²0.0 km/hOst-SO0.0 km/hNorden1010.8 hPa0.0 mm0.0 mm/h
22.05.2018 - 05.10Uhr12.2 °C10.4 °C89 %0.0 W/m²1.5 km/hOst-SO4.0 km/hOst-SO1010.9 hPa0.0 mm0.0 mm/h
22.05.2018 - 05.15Uhr12.2 °C10.4 °C89 %0.0 W/m²0.0 km/hOst-SO0.0 km/hNorden1011.0 hPa0.0 mm0.0 mm/h
22.05.2018 - 05.20Uhr12.1 °C10.3 °C89 %0.0 W/m²0.0 km/hOst-SO0.0 km/hNorden1011.0 hPa0.0 mm0.0 mm/h
22.05.2018 - 05.25Uhr12.1 °C10.3 °C89 %0.0 W/m²0.0 km/hOst-SO0.0 km/hNorden1011.0 hPa0.0 mm0.0 mm/h
22.05.2018 - 05.30Uhr12.1 °C10.3 °C89 %0.0 W/m²1.0 km/hOst-SO4.0 km/hOst-SO1011.0 hPa0.0 mm0.0 mm/h
22.05.2018 - 05.35Uhr11.9 °C10.1 °C89 %0.0 W/m²0.7 km/hOst-SO1.8 km/hOst-SO1011.0 hPa0.0 mm0.0 mm/h
22.05.2018 - 05.40Uhr12.1 °C10.2 °C89 %0.0 W/m²0.0 km/hOst-SO0.0 km/hNorden1011.0 hPa0.0 mm0.0 mm/h
22.05.2018 - 05.45Uhr12.0 °C10.2 °C89 %0.0 W/m²0.0 km/hOst-SO0.0 km/hNorden1011.0 hPa0.0 mm0.0 mm/h
22.05.2018 - 05.50Uhr12.1 °C10.3 °C89 %5.0 W/m²0.0 km/hOst-SO0.0 km/hNorden1011.1 hPa0.0 mm0.0 mm/h
22.05.2018 - 05.55Uhr12.1 °C10.3 °C89 %7.0 W/m²0.0 km/hOst-SO0.0 km/hNorden1011.1 hPa0.0 mm0.0 mm/h
22.05.2018 - 06.00Uhr11.9 °C10.1 °C89 %9.0 W/m²0.0 km/hOst-SO0.0 km/hNorden1011.1 hPa0.0 mm0.0 mm/h
22.05.2018 - 06.05Uhr12.1 °C10.3 °C89 %12.0 W/m²0.0 km/hOst-SO0.0 km/hNorden1011.1 hPa0.0 mm0.0 mm/h
22.05.2018 - 06.10Uhr12.1 °C10.4 °C89 %14.0 W/m²0.0 km/hOst-SO0.0 km/hNorden1011.2 hPa0.0 mm0.0 mm/h
22.05.2018 - 06.15Uhr12.1 °C10.3 °C89 %16.0 W/m²0.9 km/hOst-SO4.0 km/hOst-SO1011.3 hPa0.0 mm0.0 mm/h
22.05.2018 - 06.20Uhr11.9 °C10.1 °C89 %21.0 W/m²0.0 km/hOst-SO0.0 km/hNorden1011.3 hPa0.0 mm0.0 mm/h
22.05.2018 - 06.25Uhr11.7 °C9.9 °C89 %25.0 W/m²0.0 km/hOst-SO0.0 km/hNorden1011.4 hPa0.0 mm0.0 mm/h
22.05.2018 - 06.30Uhr11.7 °C9.9 °C89 %26.0 W/m²0.3 km/hOst-SO1.8 km/hOst-SO1011.5 hPa0.0 mm0.0 mm/h
22.05.2018 - 06.35Uhr11.7 °C9.9 °C89 %32.0 W/m²0.3 km/hOst-SO1.8 km/hOst-SO1011.5 hPa0.0 mm0.0 mm/h
22.05.2018 - 06.40Uhr11.8 °C10.0 °C89 %42.0 W/m²0.2 km/hOst-SO1.8 km/hOst-SO1011.5 hPa0.0 mm0.0 mm/h
22.05.2018 - 06.45Uhr11.7 °C9.9 °C89 %42.0 W/m²0.3 km/hOst-SO1.8 km/hOst-SO1011.5 hPa0.0 mm0.0 mm/h
22.05.2018 - 06.50Uhr11.9 °C10.1 °C89 %46.0 W/m²0.3 km/hOst-SO1.8 km/hOst-SO1011.5 hPa0.0 mm0.0 mm/h
22.05.2018 - 06.55Uhr11.9 °C10.1 °C89 %44.0 W/m²0.6 km/hOst-SO1.8 km/hOst-SO1011.6 hPa0.0 mm0.0 mm/h
22.05.2018 - 07.00Uhr12.0 °C10.3 °C89 %47.0 W/m²0.5 km/hOst-SO1.8 km/hOst-SO1011.7 hPa0.0 mm0.0 mm/h
22.05.2018 - 07.05Uhr11.7 °C9.9 °C89 %54.0 W/m²0.2 km/hOst-SO1.8 km/hOst-SO1011.7 hPa0.0 mm0.0 mm/h
22.05.2018 - 07.10Uhr11.8 °C10.0 °C89 %53.0 W/m²0.6 km/hOst-SO1.8 km/hOst-SO1011.7 hPa0.0 mm0.0 mm/h
22.05.2018 - 07.15Uhr11.8 °C9.9 °C89 %63.0 W/m²0.5 km/hOst-SO1.8 km/hOst-SO1011.8 hPa0.0 mm0.0 mm/h
22.05.2018 - 07.20Uhr11.9 °C10.2 °C90 %72.0 W/m²0.5 km/hOst-SO1.8 km/hOst-SO1011.7 hPa0.0 mm0.0 mm/h
22.05.2018 - 07.25Uhr12.1 °C10.4 °C90 %70.0 W/m²0.2 km/hOst-SO1.8 km/hOst-SO1011.7 hPa0.0 mm0.0 mm/h
22.05.2018 - 07.30Uhr12.2 °C10.4 °C89 %77.0 W/m²1.3 km/hOst-SO4.0 km/hOst-SO1011.7 hPa0.0 mm0.0 mm/h
22.05.2018 - 07.35Uhr11.9 °C10.2 °C90 %84.0 W/m²3.9 km/hOst-SO8.3 km/hOst-SO1011.8 hPa0.0 mm0.0 mm/h
22.05.2018 - 07.40Uhr11.7 °C10.0 °C89 %98.0 W/m²2.0 km/hOst-SO8.3 km/hOst-SO1011.7 hPa0.0 mm0.0 mm/h
22.05.2018 - 07.45Uhr11.8 °C10.0 °C89 %104.0 W/m²1.7 km/hOst-SO8.3 km/hOst-SO1011.7 hPa0.0 mm0.0 mm/h
22.05.2018 - 07.50Uhr12.0 °C10.4 °C90 %109.0 W/m²1.6 km/hOst-SO8.3 km/hOst-SO1011.8 hPa0.0 mm0.0 mm/h
22.05.2018 - 07.55Uhr12.2 °C10.5 °C89 %104.0 W/m²0.7 km/hOst-SO1.8 km/hOst-SO1011.8 hPa0.0 mm0.0 mm/h
22.05.2018 - 08.00Uhr12.3 °C10.6 °C90 %100.0 W/m²0.5 km/hOst-SO1.8 km/hOst-SO1011.8 hPa0.0 mm0.0 mm/h
22.05.2018 - 08.05Uhr12.5 °C10.8 °C90 %127.0 W/m²1.1 km/hOst-SO4.0 km/hOst-SO1011.8 hPa0.0 mm0.0 mm/h
22.05.2018 - 08.10Uhr12.4 °C10.7 °C90 %137.0 W/m²0.4 km/hOst-SO1.8 km/hOst-SO1011.9 hPa0.0 mm0.0 mm/h
22.05.2018 - 08.15Uhr12.5 °C10.8 °C90 %135.0 W/m²0.0 km/hOst-SO0.0 km/hNorden1011.9 hPa0.0 mm0.0 mm/h
22.05.2018 - 08.20Uhr12.7 °C11.0 °C90 %141.0 W/m²0.0 km/hOst-SO0.0 km/hNorden1012.0 hPa0.0 mm0.0 mm/h
22.05.2018 - 08.25Uhr12.5 °C10.9 °C90 %149.0 W/m²0.7 km/hOst-SO1.8 km/hOst-SO1012.0 hPa0.0 mm0.0 mm/h
22.05.2018 - 08.30Uhr12.6 °C11.0 °C90 %149.0 W/m²0.0 km/hOst-SO0.0 km/hNorden1012.0 hPa0.0 mm0.0 mm/h
22.05.2018 - 08.35Uhr12.6 °C11.0 °C90 %158.0 W/m²0.7 km/hOst-SO1.8 km/hOst-SO1012.0 hPa0.0 mm0.0 mm/h
22.05.2018 - 08.40Uhr13.0 °C11.4 °C90 %163.0 W/m²1.0 km/hOst-SO4.0 km/hOst-SO1012.0 hPa0.0 mm0.0 mm/h
22.05.2018 - 08.45Uhr12.8 °C11.2 °C90 %167.0 W/m²1.0 km/hOst-SO4.0 km/hOst-SO1012.0 hPa0.0 mm0.0 mm/h
22.05.2018 - 08.50Uhr12.8 °C11.2 °C90 %142.0 W/m²1.8 km/hOst-SO4.0 km/hOst-SO1012.0 hPa0.0 mm0.0 mm/h
22.05.2018 - 08.55Uhr13.1 °C11.5 °C90 %155.0 W/m²1.2 km/hOst-SO4.0 km/hOst-SO1012.0 hPa0.0 mm0.0 mm/h
22.05.2018 - 09.00Uhr13.0 °C11.4 °C90 %141.0 W/m²1.1 km/hOst-SO4.0 km/hOst-SO1012.0 hPa0.0 mm0.0 mm/h
22.05.2018 - 09.05Uhr13.0 °C11.4 °C90 %163.0 W/m²0.2 km/hOst-SO1.8 km/hOst-SO1012.0 hPa0.0 mm0.0 mm/h
22.05.2018 - 09.10Uhr13.5 °C11.9 °C90 %162.0 W/m²2.0 km/hOst-SO8.3 km/hOst-SO1012.0 hPa0.0 mm0.0 mm/h
22.05.2018 - 09.15Uhr13.5 °C11.9 °C90 %169.0 W/m²0.0 km/hOst-SO0.0 km/hNorden1012.0 hPa0.0 mm0.0 mm/h
22.05.2018 - 09.20Uhr13.6 °C11.9 °C90 %167.0 W/m²0.9 km/hOst-SO4.0 km/hOst-SO1012.0 hPa0.0 mm0.0 mm/h
22.05.2018 - 09.25Uhr13.7 °C12.1 °C90 %188.0 W/m²1.7 km/hOst-SO4.0 km/hOst-SO1012.0 hPa0.0 mm0.0 mm/h
22.05.2018 - 09.30Uhr13.8 °C12.3 °C90 %221.0 W/m²1.3 km/hOst-SO4.0 km/hOst-SO1012.0 hPa0.0 mm0.0 mm/h
22.05.2018 - 09.35Uhr14.0 °C12.4 °C90 %287.0 W/m²0.2 km/hOst-SO1.8 km/hOst-SO1012.0 hPa0.0 mm0.0 mm/h
22.05.2018 - 09.40Uhr14.0 °C12.4 °C90 %274.0 W/m²2.2 km/hOst-SO8.3 km/hOst-SO1012.0 hPa0.0 mm0.0 mm/h
22.05.2018 - 09.45Uhr13.8 °C12.3 °C90 %290.0 W/m²3.3 km/hOst-SO8.3 km/hOst-SO1011.9 hPa0.0 mm0.0 mm/h
22.05.2018 - 09.50Uhr13.8 °C12.2 °C90 %592.0 W/m²5.5 km/hOst-SO8.3 km/hOst-SO1012.0 hPa0.0 mm0.0 mm/h
22.05.2018 - 09.55Uhr14.4 °C12.8 °C90 %601.0 W/m²4.2 km/hOst-SO8.3 km/hOst-SO1011.9 hPa0.0 mm0.0 mm/h
22.05.2018 - 10.00Uhr14.5 °C12.9 °C90 %608.0 W/m²5.0 km/hOst-SO8.3 km/hOst-SO1011.8 hPa0.0 mm0.0 mm/h
22.05.2018 - 10.05Uhr14.7 °C13.1 °C90 %570.0 W/m²3.1 km/hOst-SO8.3 km/hOst-SO1011.8 hPa0.0 mm0.0 mm/h
22.05.2018 - 10.10Uhr14.9 °C13.3 °C90 %513.0 W/m²2.9 km/hOst-SO8.3 km/hOst-SO1011.8 hPa0.0 mm0.0 mm/h
22.05.2018 - 10.15Uhr15.3 °C13.6 °C90 %561.0 W/m²4.1 km/hOst-SO8.3 km/hOst-SO1011.7 hPa0.0 mm0.0 mm/h
22.05.2018 - 10.20Uhr15.8 °C14.1 °C90 %606.0 W/m²1.8 km/hOst-SO8.3 km/hOst-SO1011.7 hPa0.0 mm0.0 mm/h
22.05.2018 - 10.25Uhr16.1 °C14.3 °C89 %617.0 W/m²2.1 km/hOst-SO8.3 km/hOst-SO1011.7 hPa0.0 mm0.0 mm/h
22.05.2018 - 10.30Uhr16.7 °C14.9 °C89 %587.0 W/m²1.0 km/hOst-SO4.0 km/hOst-SO1011.6 hPa0.0 mm0.0 mm/h
22.05.2018 - 10.35Uhr17.1 °C15.2 °C89 %596.0 W/m²0.8 km/hOst-SO4.0 km/hOst-SO1011.5 hPa0.0 mm0.0 mm/h
22.05.2018 - 10.40Uhr17.4 °C15.4 °C88 %582.0 W/m²1.2 km/hOst-SO4.0 km/hOst-SO1011.5 hPa0.0 mm0.0 mm/h
22.05.2018 - 10.45Uhr17.7 °C15.6 °C88 %649.0 W/m²1.0 km/hOst-SO4.0 km/hOst-SO1011.5 hPa0.0 mm0.0 mm/h
22.05.2018 - 10.50Uhr18.3 °C16.1 °C87 %694.0 W/m²0.8 km/hOst-SO1.8 km/hOst-SO1011.5 hPa0.0 mm0.0 mm/h
22.05.2018 - 10.55Uhr18.8 °C16.5 °C87 %693.0 W/m²2.6 km/hOst-NO8.3 km/hOsten1011.4 hPa0.0 mm0.0 mm/h
22.05.2018 - 11.00Uhr19.0 °C16.6 °C86 %738.0 W/m²2.3 km/hOst-NO5.8 km/hOst-NO1011.4 hPa0.0 mm0.0 mm/h
22.05.2018 - 11.05Uhr18.9 °C16.3 °C85 %752.0 W/m²1.5 km/hOst-NO4.0 km/hOst-NO1011.4 hPa0.0 mm0.0 mm/h
22.05.2018 - 11.10Uhr19.1 °C16.6 °C85 %728.0 W/m²1.4 km/hOst-NO4.0 km/hOst-NO1011.4 hPa0.0 mm0.0 mm/h
22.05.2018 - 11.15Uhr19.5 °C17.0 °C86 %795.0 W/m²0.8 km/hOst-NO4.0 km/hOst-NO1011.4 hPa0.0 mm0.0 mm/h
22.05.2018 - 11.20Uhr19.7 °C17.1 °C85 %791.0 W/m²2.2 km/hWesten5.8 km/hWesten1011.4 hPa0.0 mm0.0 mm/h
22.05.2018 - 11.25Uhr19.3 °C16.7 °C85 %765.0 W/m²1.6 km/hWesten5.8 km/hWesten1011.3 hPa0.0 mm0.0 mm/h
22.05.2018 - 11.30Uhr19.7 °C17.2 °C86 %793.0 W/m²1.0 km/hWesten4.0 km/hWesten1011.3 hPa0.0 mm0.0 mm/h
22.05.2018 - 11.35Uhr20.0 °C17.3 °C85 %812.0 W/m²1.1 km/hWesten4.0 km/hWesten1011.3 hPa0.0 mm0.0 mm/h
22.05.2018 - 11.40Uhr20.3 °C17.4 °C83 %823.0 W/m²0.8 km/hWesten4.0 km/hWesten1011.2 hPa0.0 mm0.0 mm/h
22.05.2018 - 11.45Uhr20.7 °C17.8 °C83 %721.0 W/m²0.8 km/hWesten1.8 km/hWesten1011.2 hPa0.0 mm0.0 mm/h
22.05.2018 - 11.50Uhr20.8 °C17.9 °C83 %758.0 W/m²0.3 km/hWesten1.8 km/hWesten1011.2 hPa0.0 mm0.0 mm/h
22.05.2018 - 11.55Uhr20.9 °C17.3 °C80 %759.0 W/m²1.0 km/hWesten4.0 km/hWesten1011.2 hPa0.0 mm0.0 mm/h
22.05.2018 - 12.00Uhr21.2 °C17.4 °C79 %710.0 W/m²1.6 km/hWesten5.8 km/hWest-SW1011.2 hPa0.0 mm0.0 mm/h
22.05.2018 - 12.05Uhr20.9 °C16.2 °C74 %722.0 W/m²2.6 km/hSüdosten8.3 km/hSüdosten1011.2 hPa0.0 mm0.0 mm/h
22.05.2018 - 12.10Uhr21.0 °C16.7 °C77 %837.0 W/m²0.3 km/hSüdosten1.8 km/hSüdosten1011.1 hPa0.0 mm0.0 mm/h
22.05.2018 - 12.15Uhr21.5 °C17.2 °C76 %895.0 W/m²1.2 km/hSüdosten4.0 km/hSüdosten1011.1 hPa0.0 mm0.0 mm/h
22.05.2018 - 12.20Uhr21.5 °C16.4 °C72 %914.0 W/m²6.1 km/hSüdosten16.2 km/hSüdosten1011.0 hPa0.0 mm0.0 mm/h
22.05.2018 - 12.25Uhr21.5 °C16.3 °C72 %877.0 W/m²1.7 km/hSüd-SO8.3 km/hOsten1011.0 hPa0.0 mm0.0 mm/h
22.05.2018 - 12.30Uhr21.8 °C17.3 °C75 %898.0 W/m²0.6 km/hOsten1.8 km/hOsten1011.0 hPa0.0 mm0.0 mm/h
22.05.2018 - 12.35Uhr22.1 °C17.9 °C77 %902.0 W/m²3.4 km/hWesten8.3 km/hWesten1010.9 hPa0.0 mm0.0 mm/h
22.05.2018 - 12.40Uhr21.9 °C17.2 °C75 %875.0 W/m²2.1 km/hWesten4.0 km/hWesten1010.9 hPa0.0 mm0.0 mm/h
22.05.2018 - 12.45Uhr21.8 °C17.2 °C76 %837.0 W/m²2.5 km/hWesten5.8 km/hWesten1010.9 hPa0.0 mm0.0 mm/h
22.05.2018 - 12.50Uhr21.8 °C17.2 °C75 %780.0 W/m²3.0 km/hWesten8.3 km/hWesten1010.9 hPa0.0 mm0.0 mm/h
22.05.2018 - 12.55Uhr21.4 °C17.2 °C77 %784.0 W/m²3.1 km/hWesten8.3 km/hWesten1010.8 hPa0.0 mm0.0 mm/h
22.05.2018 - 13.00Uhr21.8 °C17.7 °C78 %805.0 W/m²2.5 km/hWesten5.8 km/hWesten1010.8 hPa0.0 mm0.0 mm/h
22.05.2018 - 13.05Uhr21.9 °C17.0 °C73 %747.0 W/m²4.2 km/hNord-NW8.3 km/hNord-NW1010.8 hPa0.0 mm0.0 mm/h
22.05.2018 - 13.10Uhr21.9 °C17.1 °C74 %842.0 W/m²1.8 km/hNord-NW5.8 km/hNord-NW1010.8 hPa0.0 mm0.0 mm/h
22.05.2018 - 13.15Uhr22.2 °C17.2 °C73 %861.0 W/m²3.9 km/hNord-NW8.3 km/hNord-NW1010.7 hPa0.0 mm0.0 mm/h
22.05.2018 - 13.20Uhr22.4 °C17.2 °C72 %849.0 W/m²2.2 km/hNord-NW5.8 km/hNord-NW1010.6 hPa0.0 mm0.0 mm/h
22.05.2018 - 13.25Uhr22.4 °C16.8 °C71 %844.0 W/m²2.1 km/hNord-NW5.8 km/hNordwesten1010.6 hPa0.0 mm0.0 mm/h
22.05.2018 - 13.30Uhr22.5 °C16.1 °C67 %796.0 W/m²2.9 km/hNordwesten5.8 km/hNordwesten1010.5 hPa0.0 mm0.0 mm/h
22.05.2018 - 13.35Uhr22.5 °C16.0 °C67 %752.0 W/m²2.0 km/hNordwesten5.8 km/hNordwesten1010.4 hPa0.0 mm0.0 mm/h
22.05.2018 - 13.40Uhr22.3 °C15.2 °C64 %773.0 W/m²2.9 km/hNordwesten5.8 km/hNordwesten1010.4 hPa0.0 mm0.0 mm/h
22.05.2018 - 13.45Uhr22.1 °C15.3 °C65 %722.0 W/m²2.8 km/hNordwesten8.3 km/hNordwesten1010.3 hPa0.0 mm0.0 mm/h
22.05.2018 - 13.50Uhr22.1 °C15.3 °C65 %650.0 W/m²2.7 km/hNordwesten5.8 km/hNordwesten1010.2 hPa0.0 mm0.0 mm/h